Tropical Cyclones
[Index]
Main Index Home Page Stock Weather Photos Extreme Storms Discussion Storm News and Storm Chasing Reports Tropical Cyclones / Hurricanes / Typhoons Weather Data and Links Wild Fires / Bushfires Weather Observation Techniques Weather Picture Catalogue Tornado Pictures and Reports Stock Video Footage and DVDs for sale
Season 1981-1982 Tropical Cyclone 198182_04 Track Map
Season 1981-1982 Summaries: [BoM-AU] [JTWC-AU] [JTWC-SIO] [JTWC-SPAC] [JTWC-SH]
<<- Previous TC | BoM 1981-1982 Season | Next TC ->>

click for intensity scale information  Lat/long Grid: Show Hide

 Date Labels: Show Hide

Bureau of Meteorology Tropical Cyclone Data

Name: 198182_04
Number: 623 / 198182_04

19 Dec 1981 23:00 UTC to 23 Dec 1981 12:00 UTC

    date/time    lat    long    hPa   cat  kts
1981-12-19 23   11.7   140.3   1004         25          
1981-12-20 02   11.9   139.4   1001         25          
1981-12-20 05   11.9   138.8    998         30          
1981-12-20 08   12.0   138.3    994    1    40          
1981-12-20 11   12.0   137.9    990    1    45          
1981-12-20 17   12.2   136.7    995    1    40          
1981-12-20 20   12.4   135.6   1001         25          
1981-12-20 23   12.4   134.0   1004         25          
1981-12-21 02   12.3   133.1   1005         25          
1981-12-21 05   12.2   132.0   1005         25          
1981-12-21 08   12.2   131.2   1005         25          
1981-12-21 11   12.1   130.5   1005         25          
1981-12-21 14   11.9   130.1   1005         25          
1981-12-21 17   11.7   129.5   1000         25          
1981-12-21 20   11.5   128.9    998         30          
1981-12-21 23   11.2   128.1    998         30          
1981-12-22 02   11.2   127.2    988    1    30          
1981-12-22 05   11.4   126.4    992    1    40          
1981-12-22 08   11.4   125.6    992    1    40          
1981-12-22 11   11.4   125.0    995    1    40          
1981-12-22 18   11.6   123.7    995    1    35          
1981-12-23 00   11.8   122.6    995    1    35          
1981-12-23 06   12.0   121.5    998         30          
1981-12-23 12   12.1   121.0   1000         25          
Winds are 10-min average.

Tropical cyclone tracks developed by Michael Bath using data from the Bureau of Meteorology and Google Maps.


[Australian Severe Weather index] [Copyright Notice] [Email Contacts] [Search This Site] [Privacy Policy]
Document: tropical_cyclone_198182_04.htm Updated: 4 April 2018